Time;durP1;ratioP1;P1;durP2;ratioP2;P2;SDS_P1;SDS_P2;PMS_P1;PMS_P2;Temp;Humidity;BMP_temperature;BMP_pressure;BME280_temperature;BME280_humidity;BME280_pressure;Samples;Min_cycle;Max_cycle;Signal;HPM_P1;HPM_P2
2022/10/09 00:00:45;;;;;;;6.60;4.53;;;;;;;13.20;86.93;94803.13;5058178;28;20211;-63
2022/10/09 00:03:12;;;;;;;6.15;3.97;;;;;;;13.22;87.89;94778.25;5092646;28;20642;-60
2022/10/09 00:05:37;;;;;;;5.80;3.88;;;;;;;13.18;88.54;94783.78;5092619;28;20208;-63
2022/10/09 00:08:03;;;;;;;5.45;4.25;;;;;;;13.29;88.15;94783.63;5092597;28;20192;-60
2022/10/09 00:10:29;;;;;;;8.73;4.35;;;;;;;13.45;86.82;94805.00;5092703;28;20758;-62
2022/10/09 00:12:54;;;;;;;6.85;4.78;;;;;;;13.48;86.33;94812.38;5074465;28;20191;-58
2022/10/09 00:15:21;;;;;;;5.53;4.27;;;;;;;13.42;86.53;94817.25;5092581;28;20219;-62
2022/10/09 00:17:46;;;;;;;6.28;4.47;;;;;;;13.30;87.23;94796.22;5092300;28;20622;-61
2022/10/09 00:20:12;;;;;;;7.55;5.00;;;;;;;13.15;88.59;94774.66;5092288;28;20208;-59
2022/10/09 00:22:38;;;;;;;7.77;4.43;;;;;;;13.22;89.22;94778.25;5092171;28;20216;-62
2022/10/09 00:25:04;;;;;;;8.07;4.45;;;;;;;13.08;90.39;94750.66;5092542;28;20220;-62
2022/10/09 00:27:30;;;;;;;5.80;4.35;;;;;;;13.20;89.32;94777.59;5091792;28;20173;-59
2022/10/09 00:29:55;;;;;;;10.73;5.03;;;;;;;13.20;88.36;94792.09;5092158;28;20223;-63
2022/10/09 00:32:20;;;;;;;8.75;4.50;;;;;;;13.00;89.24;94768.41;5092267;28;20191;-59
2022/10/09 00:34:46;;;;;;;5.97;4.93;;;;;;;13.05;89.25;94775.69;5092214;28;20617;-62
2022/10/09 00:37:12;;;;;;;6.17;4.27;;;;;;;13.01;90.20;94757.25;5092225;28;20357;-62
2022/10/09 00:39:37;;;;;;;6.97;5.30;;;;;;;12.77;91.42;94743.38;5092161;28;20204;-60
2022/10/09 00:42:03;;;;;;;7.03;5.47;;;;;;;12.80;92.22;94736.28;5091955;28;20299;-58
2022/10/09 00:44:47;;;;;;;8.80;5.60;;;;;;;12.71;94.73;94710.78;5091945;28;20212;-59
2022/10/09 00:47:19;;;;;;;7.80;6.13;;;;;;;12.93;93.35;94752.03;5091861;28;20195;-61
2022/10/09 00:49:46;;;;;;;6.80;5.40;;;;;;;13.04;92.21;94756.19;5092115;28;20215;-59
2022/10/09 00:52:12;;;;;;;8.30;5.40;;;;;;;12.97;93.38;94743.16;5091437;28;20187;-59
2022/10/09 00:54:40;;;;;;;7.63;5.72;;;;;;;12.96;93.67;94736.47;5091830;28;20212;-62
2022/10/09 00:57:07;;;;;;;11.40;6.60;;;;;;;12.90;94.95;94741.31;5091975;28;20222;-58
2022/10/09 00:59:33;;;;;;;11.07;6.27;;;;;;;12.79;96.14;94732.09;5091841;28;20585;-61
2022/10/09 01:01:59;;;;;;;9.50;5.70;;;;;;;12.91;95.82;94743.72;5073452;28;20291;-62
2022/10/09 01:04:25;;;;;;;6.90;5.67;;;;;;;12.71;97.23;94737.09;5091594;28;20212;-63
2022/10/09 01:07:11;;;;;;;7.23;5.30;;;;;;;12.79;96.40;94746.59;5091816;28;20188;-59
2022/10/09 01:10:01;;;;;;;11.00;6.33;;;;;;;12.88;95.25;94754.22;5091978;28;20265;-63
2022/10/09 01:12:37;;;;;;;7.80;4.97;;;;;;;13.00;94.72;94768.41;5091632;28;20190;-61
2022/10/09 01:15:18;;;;;;;8.73;5.40;;;;;;;12.78;96.10;94753.47;5092011;28;20211;-62
2022/10/09 01:18:03;;;;;;;8.77;5.40;;;;;;;12.71;96.79;94751.59;5091712;28;20211;-62
2022/10/09 01:20:37;;;;;;;8.17;5.67;;;;;;;12.72;97.64;94754.03;5073194;28;20215;-61
2022/10/09 01:23:14;;;;;;;6.27;4.63;;;;;;;12.68;97.55;94768.00;5091256;28;20210;-60
2022/10/09 01:25:49;;;;;;;9.17;5.03;;;;;;;12.77;97.00;94759.50;5091453;28;20329;-59
2022/10/09 01:28:17;;;;;;;6.73;5.53;;;;;;;12.89;96.27;94771.13;5091313;28;20183;-61
2022/10/09 01:30:42;;;;;;;7.73;5.17;;;;;;;12.90;95.75;94788.06;5091237;28;20723;-61
2022/10/09 01:33:09;;;;;;;7.40;5.15;;;;;;;12.92;95.28;94798.13;5091302;28;20188;-61
2022/10/09 01:35:36;;;;;;;6.25;4.72;;;;;;;12.89;96.28;94776.22;5091238;28;20207;-62
2022/10/09 01:38:03;;;;;;;8.20;5.43;;;;;;;12.90;96.63;94777.84;5091278;28;20633;-60
2022/10/09 01:40:30;;;;;;;6.65;5.00;;;;;;;12.95;96.13;94778.22;5090264;28;20239;-64
2022/10/09 01:42:55;;;;;;;7.75;4.80;;;;;;;12.91;96.63;94769.25;5091119;28;20204;-61
2022/10/09 01:45:21;;;;;;;7.20;5.10;;;;;;;12.90;97.22;94771.94;5072913;28;20219;-61
2022/10/09 01:47:46;;;;;;;5.80;4.77;;;;;;;12.94;97.21;94770.72;5091284;28;20188;-61
2022/10/09 01:50:23;;;;;;;8.43;5.03;;;;;;;12.95;96.51;94785.88;5090947;28;20247;-62
2022/10/09 01:53:01;;;;;;;6.17;4.77;;;;;;;12.78;97.24;94771.31;5090944;28;20241;-58
2022/10/09 01:55:48;;;;;;;7.25;5.20;;;;;;;12.90;96.75;94782.97;5091351;28;20246;-59
2022/10/09 01:58:21;;;;;;;8.53;5.43;;;;;;;12.79;97.76;94767.00;5072975;28;20192;-59
2022/10/09 02:01:17;;;;;;;5.43;4.85;;;;;;;12.79;97.20;94775.47;5090892;28;20204;-62
2022/10/09 02:03:47;;;;;;;6.23;4.77;;;;;;;12.80;97.13;94779.63;5070969;28;20728;-58
2022/10/09 02:06:15;;;;;;;7.43;5.40;;;;;;;12.87;96.85;94778.13;5090899;28;20188;-60
2022/10/09 02:08:43;;;;;;;10.37;5.77;;;;;;;12.88;97.26;94789.94;5090641;28;20666;-65
2022/10/09 02:11:14;;;;;;;9.23;5.03;;;;;;;12.89;97.08;94793.31;5072663;28;20615;-60
2022/10/09 02:13:40;;;;;;;6.67;5.63;;;;;;;12.83;97.50;94794.66;5090988;28;20188;-62
2022/10/09 02:16:23;;;;;;;9.25;5.15;;;;;;;12.86;96.98;94798.69;5090760;28;20180;-62
2022/10/09 02:18:58;;;;;;;10.70;5.97;;;;;;;12.78;97.89;94794.28;5090811;28;20308;-62
2022/10/09 02:21:38;;;;;;;9.43;5.10;;;;;;;12.77;98.50;94797.75;5090939;28;20191;-63
2022/10/09 02:24:07;;;;;;;10.07;6.22;;;;;;;12.75;98.29;94793.72;5073950;28;20220;-60
2022/10/09 02:26:32;;;;;;;6.30;4.90;;;;;;;12.85;97.84;94808.06;5090550;28;20286;-61
2022/10/09 02:28:58;;;;;;;6.95;5.25;;;;;;;13.04;95.89;94827.66;5090966;28;20304;-62
2022/10/09 02:31:28;;;;;;;6.90;5.07;;;;;;;12.70;98.05;94814.59;5090648;28;20193;-62
2022/10/09 02:33:59;;;;;;;8.80;4.90;;;;;;;12.61;96.54;94823.03;5090642;28;20220;-62
2022/10/09 02:36:25;;;;;;;7.30;5.15;;;;;;;12.81;94.23;94857.75;5090738;28;20561;-64
2022/10/09 02:38:51;;;;;;;6.72;5.45;;;;;;;12.58;96.06;94823.34;5090554;28;20269;-62
2022/10/09 02:41:17;;;;;;;11.67;5.60;;;;;;;12.47;98.01;94805.63;5072340;28;20192;-62
2022/10/09 02:43:42;;;;;;;5.53;4.43;;;;;;;12.42;99.65;94787.41;5090364;28;20694;-60
2022/10/09 02:46:07;;;;;;;6.90;5.40;;;;;;;12.46;100.00;94784.41;5090427;28;20654;-60
2022/10/09 02:48:33;;;;;;;5.43;4.87;;;;;;;12.52;98.90;94808.59;5090520;28;20646;-63
2022/10/09 02:51:00;;;;;;;7.50;4.87;;;;;;;12.49;99.12;94796.91;5073294;28;20194;-62
2022/10/09 02:53:26;;;;;;;9.03;5.10;;;;;;;12.48;99.15;94812.34;5075755;28;20204;-62
2022/10/09 02:55:51;;;;;;;8.33;5.53;;;;;;;12.46;98.16;94816.78;5075621;28;20184;-63
2022/10/09 02:58:17;;;;;;;8.67;5.70;;;;;;;12.55;98.24;94821.03;5093776;28;20211;-62
2022/10/09 03:00:42;;;;;;;9.03;5.70;;;;;;;12.59;96.94;94835.94;5093639;28;20231;-61
2022/10/09 03:03:08;;;;;;;7.47;5.80;;;;;;;12.45;97.74;94828.72;5075487;28;20212;-63
2022/10/09 03:05:36;;;;;;;9.33;6.20;;;;;;;12.31;99.57;94802.84;5093896;28;20212;-63
2022/10/09 03:08:02;;;;;;;9.07;6.43;;;;;;;12.16;100.00;94791.47;5093627;28;20199;-63
2022/10/09 03:10:27;;;;;;;9.90;6.40;;;;;;;12.26;100.00;94794.81;5093677;28;20216;-62
2022/10/09 03:12:53;;;;;;;7.50;5.83;;;;;;;12.21;100.00;94794.41;5075462;28;20278;-62
2022/10/09 03:15:18;;;;;;;7.37;6.30;;;;;;;12.06;100.00;94790.69;5093632;28;20701;-60
2022/10/09 03:17:44;;;;;;;9.20;6.07;;;;;;;12.16;100.00;94796.56;5093394;28;20225;-60
2022/10/09 03:20:09;;;;;;;10.70;5.83;;;;;;;12.25;100.00;94804.19;5075231;28;20208;-61
2022/10/09 03:22:34;;;;;;;9.70;6.27;;;;;;;12.27;100.00;94809.97;5093345;28;20212;-61
2022/10/09 03:25:00;;;;;;;9.27;5.70;;;;;;;12.17;100.00;94804.06;5075433;28;20307;-62
2022/10/09 03:27:25;;;;;;;8.20;6.40;;;;;;;12.24;100.00;94815.31;5093553;28;20605;-61
2022/10/09 03:29:51;;;;;;;7.90;6.13;;;;;;;12.39;100.00;94823.34;5093620;28;20212;-66
2022/10/09 03:32:16;;;;;;;9.90;5.63;;;;;;;12.41;100.00;94835.03;5093030;28;20185;-58
2022/10/09 03:34:42;;;;;;;10.10;5.80;;;;;;;12.38;100.00;94820.00;5093236;28;20223;-64
2022/10/09 03:37:07;;;;;;;6.70;5.22;;;;;;;12.39;100.00;94826.72;5093075;28;20270;-59
2022/10/09 03:39:32;;;;;;;6.82;5.72;;;;;;;12.48;100.00;94842.94;5074868;28;20216;-61
2022/10/09 03:41:58;;;;;;;8.07;6.10;;;;;;;12.38;100.00;94842.94;5092852;28;20218;-62
2022/10/09 03:44:23;;;;;;;7.77;5.50;;;;;;;12.34;100.00;94840.81;5092989;28;20219;-61
2022/10/09 03:46:48;;;;;;;9.20;5.70;;;;;;;12.19;100.00;94819.22;5092769;28;20271;-62
2022/10/09 03:49:15;;;;;;;7.80;6.13;;;;;;;12.15;100.00;94836.53;5074602;28;20211;-63
2022/10/09 03:51:40;;;;;;;11.47;6.77;;;;;;;12.20;100.00;94833.59;5074748;28;20272;-60
2022/10/09 03:54:06;;;;;;;10.47;6.07;;;;;;;12.26;100.00;94838.16;5074608;28;20294;-60
2022/10/09 03:56:31;;;;;;;9.37;5.67;;;;;;;12.23;100.00;94839.22;5074434;28;20184;-60
2022/10/09 03:58:56;;;;;;;9.67;5.73;;;;;;;12.27;100.00;94853.31;5092550;28;20216;-62
2022/10/09 04:01:22;;;;;;;10.50;5.50;;;;;;;12.18;100.00;94845.66;5074647;28;20669;-62
2022/10/09 04:03:48;;;;;;;9.00;5.90;;;;;;;12.11;100.00;94844.56;5091419;28;20270;-61
2022/10/09 04:06:13;;;;;;;6.03;5.07;;;;;;;11.99;100.00;94843.09;5092347;28;20184;-59
2022/10/09 04:08:39;;;;;;;7.67;5.13;;;;;;;12.17;100.00;94879.72;5092508;28;20194;-61
2022/10/09 04:11:04;;;;;;;8.33;4.67;;;;;;;12.12;99.51;94876.78;5092468;28;20578;-63
2022/10/09 04:13:30;;;;;;;8.03;4.63;;;;;;;12.03;98.11;94896.22;5074360;28;20291;-62
2022/10/09 04:15:55;;;;;;;11.10;4.77;;;;;;;11.73;99.02;94881.03;5092432;28;20211;-62
2022/10/09 04:18:21;;;;;;;6.87;4.20;;;;;;;11.52;99.14;94875.97;5074261;28;20176;-63
2022/10/09 04:20:51;;;;;;;7.10;4.67;;;;;;;11.43;99.96;94858.91;5092196;28;20208;-63
2022/10/09 04:23:18;;;;;;;5.90;4.47;;;;;;;11.30;100.00;94845.63;5092162;28;20212;-62
2022/10/09 04:25:44;;;;;;;6.70;4.03;;;;;;;11.21;100.00;94851.47;5092267;28;20595;-61
2022/10/09 04:28:09;;;;;;;11.13;4.90;;;;;;;11.14;100.00;94830.03;5092098;28;20188;-61
2022/10/09 04:30:36;;;;;;;5.97;4.83;;;;;;;11.30;100.00;94862.63;5091994;28;20207;-61
2022/10/09 04:33:02;;;;;;;6.10;4.37;;;;;;;11.14;100.00;94852.94;5057205;28;20203;-60
2022/10/09 04:35:27;;;;;;;10.83;4.73;;;;;;;11.19;100.00;94850.81;5092314;28;20220;-60
2022/10/09 04:37:53;;;;;;;7.27;4.50;;;;;;;11.02;100.00;94846.34;5073857;28;20188;-62
2022/10/09 04:40:18;;;;;;;5.60;4.60;;;;;;;11.13;100.00;94863.25;5092061;28;20295;-62
2022/10/09 04:42:44;;;;;;;4.13;3.73;;;;;;;11.03;100.00;94852.25;5091631;28;20600;-62
2022/10/09 04:45:09;;;;;;;6.40;4.43;;;;;;;11.06;100.00;94850.25;5091956;28;20299;-60
2022/10/09 04:47:35;;;;;;;5.87;4.43;;;;;;;11.11;100.00;94854.94;5073705;28;20194;-59
2022/10/09 04:50:00;;;;;;;5.13;4.30;;;;;;;11.06;100.00;94862.16;5091553;28;20212;-59
2022/10/09 04:52:26;;;;;;;6.67;4.50;;;;;;;10.93;100.00;94854.72;5091787;28;20263;-60
2022/10/09 04:54:51;;;;;;;6.53;4.03;;;;;;;10.80;100.00;94844.78;5091564;28;20222;-60
2022/10/09 04:57:17;;;;;;;5.73;4.27;;;;;;;10.88;100.00;94852.59;5091638;28;20192;-59
2022/10/09 04:59:42;;;;;;;6.57;4.00;;;;;;;10.79;100.00;94857.59;5091688;28;20211;-60
2022/10/09 05:02:08;;;;;;;4.67;4.17;;;;;;;10.61;100.00;94841.31;5073438;28;20199;-62
2022/10/09 05:04:33;;;;;;;6.43;4.50;;;;;;;10.66;100.00;94854.47;5091778;28;20302;-62
2022/10/09 05:06:59;;;;;;;5.87;3.90;;;;;;;10.62;100.00;94859.00;5091658;28;20191;-62
2022/10/09 05:09:24;;;;;;;6.87;4.37;;;;;;;10.62;100.00;94856.47;5091456;28;20290;-62
2022/10/09 05:11:50;;;;;;;9.00;4.90;;;;;;;10.70;100.00;94858.38;5091541;28;20740;-63
2022/10/09 05:14:15;;;;;;;7.23;4.10;;;;;;;10.93;100.00;94864.91;5073191;28;20211;-64
2022/10/09 05:16:41;;;;;;;5.60;4.17;;;;;;;10.95;100.00;94878.28;5091352;28;20200;-62
2022/10/09 05:19:06;;;;;;;8.17;4.57;;;;;;;10.88;100.00;94867.84;5066790;22;20228;-58
2022/10/09 05:21:32;;;;;;;6.87;4.50;;;;;;;11.05;100.00;94871.50;5070989;28;20196;-62
2022/10/09 05:23:57;;;;;;;5.40;4.17;;;;;;;11.14;100.00;94888.56;5070939;28;20244;-61
2022/10/09 05:26:25;;;;;;;5.97;4.63;;;;;;;11.00;100.00;94871.09;5070933;28;20189;-61
2022/10/09 05:28:50;;;;;;;5.23;4.13;;;;;;;10.96;100.00;94874.81;5071298;28;20739;-61
2022/10/09 05:31:23;;;;;;;7.33;4.63;;;;;;;11.23;100.00;94899.72;5070781;28;20196;-62
2022/10/09 05:33:49;;;;;;;8.07;4.87;;;;;;;11.34;100.00;94919.97;5071241;28;20225;-60
2022/10/09 05:36:16;;;;;;;6.53;4.73;;;;;;;11.25;100.00;94921.53;5070880;28;20184;-62
2022/10/09 05:38:41;;;;;;;9.00;4.73;;;;;;;11.15;100.00;94922.47;5053098;28;20547;-64
2022/10/09 05:41:10;;;;;;;5.57;4.57;;;;;;;11.40;100.00;94920.28;5052850;28;20199;-60
2022/10/09 05:43:39;;;;;;;5.20;3.87;;;;;;;11.53;99.98;94942.97;5070844;28;20266;-59
2022/10/09 05:46:05;;;;;;;6.03;4.40;;;;;;;11.51;100.00;94932.91;5070971;28;20212;-61
2022/10/09 05:48:31;;;;;;;5.97;4.87;;;;;;;11.30;100.00;94928.81;5071454;28;20200;-62
2022/10/09 05:51:13;;;;;;;7.47;5.60;;;;;;;11.28;100.00;94920.50;5069683;28;20242;-62
2022/10/09 05:53:40;;;;;;;6.77;4.90;;;;;;;11.49;100.00;94939.88;5071306;28;20570;-62
2022/10/09 05:56:13;;;;;;;5.70;4.70;;;;;;;11.44;100.00;94931.81;5070668;28;20246;-59
2022/10/09 05:58:38;;;;;;;10.00;6.00;;;;;;;11.68;99.57;94946.81;5071065;28;20631;-61
2022/10/09 06:01:03;;;;;;;9.17;5.47;;;;;;;11.98;100.00;94907.75;5070808;28;20185;-62
2022/10/09 06:03:29;;;;;;;7.40;5.23;;;;;;;12.19;100.00;94909.25;5070800;28;20227;-62
2022/10/09 06:06:03;;;;;;;10.57;7.40;;;;;;;11.98;100.00;94959.50;5052856;28;20192;-63
2022/10/09 06:08:32;;;;;;;12.83;7.30;;;;;;;11.98;100.00;94951.06;5070410;28;20236;-58
2022/10/09 06:10:58;;;;;;;17.57;7.73;;;;;;;11.94;100.00;94959.91;5070528;28;20192;-63
2022/10/09 06:13:23;;;;;;;12.13;7.43;;;;;;;11.98;100.00;94959.50;5052347;28;20197;-63
2022/10/09 06:15:55;;;;;;;14.13;9.90;;;;;;;11.96;100.00;94943.53;5052552;28;20687;-60
2022/10/09 06:18:21;;;;;;;17.67;10.67;;;;;;;11.96;100.00;94935.09;5070773;28;20204;-62
2022/10/09 06:20:58;;;;;;;14.57;11.13;;;;;;;12.07;100.00;94958.72;5070399;28;20205;-63
2022/10/09 06:23:23;;;;;;;13.80;8.80;;;;;;;12.15;100.00;94952.97;5070831;28;20224;-61
2022/10/09 06:26:03;;;;;;;18.57;8.57;;;;;;;12.13;100.00;94954.84;5071554;28;20220;-62
2022/10/09 06:28:30;;;;;;;18.70;11.40;;;;;;;12.19;100.00;94964.50;5073919;28;20196;-60
2022/10/09 06:31:04;;;;;;;13.47;8.87;;;;;;;12.27;100.00;94964.66;5073903;28;20192;-62
2022/10/09 06:33:31;;;;;;;12.43;8.63;;;;;;;12.28;100.00;94963.72;5073975;28;20338;-61
2022/10/09 06:36:02;;;;;;;15.47;8.80;;;;;;;12.41;100.00;94969.34;5073873;28;20249;-58
2022/10/09 06:38:28;;;;;;;12.60;7.90;;;;;;;12.57;100.00;94977.28;5074081;28;20330;-64
2022/10/09 06:40:53;;;;;;;12.30;8.87;;;;;;;12.64;100.00;94980.91;5073971;28;20261;-62
2022/10/09 06:43:19;;;;;;;15.33;8.50;;;;;;;12.57;100.00;94990.03;5073854;28;20682;-61
2022/10/09 06:45:44;;;;;;;12.57;9.03;;;;;;;12.78;100.00;95000.94;5073582;28;20201;-61
2022/10/09 06:48:10;;;;;;;13.47;8.73;;;;;;;12.93;100.00;95012.31;5055741;28;20201;-64
2022/10/09 06:50:36;;;;;;;19.57;14.00;;;;;;;12.93;100.00;95002.09;5073560;28;20720;-61
2022/10/09 06:53:05;;;;;;;10.83;8.20;;;;;;;12.91;100.00;95004.00;5039146;28;20199;-63
2022/10/09 06:55:31;;;;;;;12.50;9.53;;;;;;;12.80;100.00;95003.34;5073538;28;20211;-63
2022/10/09 06:57:56;;;;;;;11.70;8.93;;;;;;;12.87;100.00;94995.00;5073698;28;20235;-62
2022/10/09 07:00:22;;;;;;;13.00;9.37;;;;;;;12.76;100.00;94984.13;5073456;28;20201;-59
2022/10/09 07:02:48;;;;;;;11.85;9.20;;;;;;;12.81;100.00;94981.97;5073364;28;20231;-62
2022/10/09 07:05:14;;;;;;;15.20;9.00;;;;;;;13.01;100.00;95007.34;5073377;28;20207;-59
2022/10/09 07:07:40;;;;;;;13.93;10.50;;;;;;;13.14;100.00;95004.53;5055518;28;20197;-63
2022/10/09 07:10:06;;;;;;;20.03;9.10;;;;;;;13.19;100.00;95017.72;5073533;28;20283;-64
2022/10/09 07:12:36;;;;;;;14.53;9.13;;;;;;;13.31;99.80;95026.84;5073153;28;20389;-61
2022/10/09 07:15:04;;;;;;;18.43;8.67;;;;;;;13.53;98.32;95046.97;5073139;28;20304;-63
2022/10/09 07:17:29;;;;;;;15.50;9.75;;;;;;;13.44;100.00;95012.81;5073290;28;20208;-63
2022/10/09 07:19:55;;;;;;;12.65;8.27;;;;;;;13.32;100.00;95016.47;5072971;28;20197;-62
2022/10/09 07:22:20;;;;;;;12.55;9.10;;;;;;;13.48;100.00;95009.06;5072996;28;20216;-61
2022/10/09 07:24:46;;;;;;;14.77;9.93;;;;;;;13.45;99.87;95021.28;5073075;28;20574;-58
2022/10/09 07:27:11;;;;;;;13.57;9.48;;;;;;;13.57;99.44;95032.97;5055116;28;20181;-58
2022/10/09 07:29:37;;;;;;;11.55;8.60;;;;;;;13.90;96.92;95063.09;5072793;28;20562;-62
2022/10/09 07:32:02;;;;;;;12.20;8.82;;;;;;;13.86;96.92;95066.06;5072867;28;20193;-61
2022/10/09 07:34:28;;;;;;;14.48;8.63;;;;;;;13.89;98.04;95050.47;5054839;28;20304;-59
2022/10/09 07:36:54;;;;;;;12.00;9.67;;;;;;;13.59;99.26;95035.38;5070831;28;20215;-61
2022/10/09 07:39:20;;;;;;;12.83;9.00;;;;;;;13.71;99.10;95041.94;5072467;28;20216;-61
2022/10/09 07:41:49;;;;;;;17.40;10.17;;;;;;;13.76;98.60;95047.41;5072764;28;20185;-64
2022/10/09 07:44:14;;;;;;;15.10;9.53;;;;;;;13.97;97.29;95063.34;5072983;28;20231;-63
2022/10/09 07:46:46;;;;;;;16.83;9.80;;;;;;;14.14;98.15;95042.16;5072763;28;20662;-63
2022/10/09 07:49:12;;;;;;;14.18;9.63;;;;;;;14.33;99.13;95036.97;5072843;28;20220;-62
2022/10/09 07:51:37;;;;;;;13.07;9.70;;;;;;;14.50;97.26;95069.47;5054372;28;20187;-62
2022/10/09 07:54:02;;;;;;;16.85;9.25;;;;;;;14.69;94.86;95100.06;5072205;28;20205;-62
2022/10/09 07:56:36;;;;;;;16.35;10.02;;;;;;;14.74;94.84;95086.84;5072662;28;20192;-62
2022/10/09 07:59:10;;;;;;;15.52;10.05;;;;;;;14.92;96.19;95074.88;5072320;28;20219;-62
2022/10/09 08:01:37;;;;;;;15.07;10.07;;;;;;;15.15;94.43;95093.94;5072393;28;20184;-63
2022/10/09 08:04:03;;;;;;;12.77;8.88;;;;;;;15.29;94.68;95083.19;5072649;28;20220;-61
2022/10/09 08:06:29;;;;;;;14.73;9.15;;;;;;;15.58;93.62;95094.03;5072424;28;20179;-62
2022/10/09 08:08:57;;;;;;;14.13;8.98;;;;;;;15.72;90.40;95136.25;5054327;28;20204;-62
2022/10/09 08:11:24;;;;;;;15.00;9.32;;;;;;;16.03;90.02;95129.75;5072263;28;20597;-61
2022/10/09 08:13:50;;;;;;;14.35;9.68;;;;;;;16.26;89.76;95128.25;5054257;28;20208;-63
2022/10/09 08:16:18;;;;;;;13.52;9.43;;;;;;;16.39;88.86;95135.53;5072189;28;20190;-62
2022/10/09 08:18:43;;;;;;;16.02;9.45;;;;;;;16.66;88.49;95141.31;5072229;28;20216;-61
2022/10/09 08:21:14;;;;;;;19.88;10.02;;;;;;;16.81;87.37;95148.44;5072187;28;20185;-60
2022/10/09 08:23:41;;;;;;;14.45;9.23;;;;;;;17.17;84.47;95188.38;5071946;28;20720;-65
2022/10/09 08:26:17;;;;;;;13.23;9.40;;;;;;;17.43;84.25;95176.22;5053964;28;20224;-61
2022/10/09 08:28:43;;;;;;;14.57;7.93;;;;;;;17.69;82.15;95205.19;5071827;28;20299;-63
2022/10/09 08:31:13;;;;;;;14.70;8.52;;;;;;;17.89;81.64;95209.06;5071902;28;20218;-60
2022/10/09 08:33:39;;;;;;;13.23;7.63;;;;;;;18.02;79.11;95247.16;5053895;28;20227;-61
2022/10/09 08:36:07;;;;;;;12.38;8.00;;;;;;;18.36;78.07;95260.69;5072044;28;20828;-62
2022/10/09 08:38:34;;;;;;;12.23;7.90;;;;;;;18.72;77.68;95248.28;5071659;28;20192;-61
2022/10/09 08:41:08;;;;;;;12.18;7.82;;;;;;;18.67;79.50;95211.88;5071830;28;20185;-62
2022/10/09 08:43:38;;;;;;;13.15;7.97;;;;;;;19.08;75.02;95288.13;5071808;28;20216;-60
2022/10/09 08:46:15;;;;;;;18.05;8.57;;;;;;;19.11;75.80;95255.06;5071639;28;20704;-63
2022/10/09 08:48:43;;;;;;;9.57;6.90;;;;;;;18.79;73.67;95282.69;5071679;28;20192;-60
2022/10/09 08:51:20;;;;;;;11.65;6.88;;;;;;;19.05;75.57;95236.88;5071655;28;20574;-59
2022/10/09 08:54:15;;;;;;;11.75;6.55;;;;;;;19.08;73.16;95291.50;5072000;28;20216;-59
2022/10/09 08:56:41;;;;;;;10.13;6.38;;;;;;;19.06;72.48;95292.63;5036010;28;20208;-60
2022/10/09 08:59:10;;;;;;;9.07;6.00;;;;;;;19.03;75.33;95207.91;5071646;28;20209;-61
2022/10/09 09:01:42;;;;;;;8.32;6.57;;;;;;;19.04;73.45;95245.59;5071407;28;20187;-60
2022/10/09 09:04:26;;;;;;;8.25;6.45;;;;;;;19.47;73.64;95236.56;5053491;28;20299;-61
2022/10/09 09:07:23;;;;;;;6.65;5.90;;;;;;;19.54;70.75;95277.00;5071729;28;20185;-62
2022/10/09 09:10:19;;;;;;;8.98;5.70;;;;;;;19.96;71.71;95245.59;5070180;28;20205;-63
2022/10/09 09:12:48;;;;;;;11.50;5.70;;;;;;;20.29;69.40;95287.50;5070185;28;20716;-63
2022/10/09 09:15:25;;;;;;;7.97;5.70;;;;;;;20.24;68.10;95308.69;5053461;28;20254;-61
2022/10/09 09:18:21;;;;;;;7.43;5.43;;;;;;;20.40;66.26;95339.56;5071439;28;20196;-62
2022/10/09 09:20:56;;;;;;;11.25;4.63;;;;;;;20.38;64.77;95351.06;5071227;28;20192;-59
2022/10/09 09:23:29;;;;;;;4.97;3.90;;;;;;;20.64;65.29;95328.25;5071615;28;20223;-63
2022/10/09 09:25:55;;;;;;;4.45;3.67;;;;;;;21.01;64.42;95343.72;5071404;28;20180;-62
2022/10/09 09:28:29;;;;;;;5.35;3.67;;;;;;;21.36;63.05;95371.53;5053013;28;20201;-62
2022/10/09 09:30:59;;;;;;;4.30;3.90;;;;;;;21.48;61.13;95395.97;5071276;28;20594;-64
2022/10/09 09:33:40;;;;;;;5.95;4.00;;;;;;;21.74;60.83;95398.91;5071335;28;20192;-60
2022/10/09 09:36:39;;;;;;;11.73;3.88;;;;;;;21.16;59.65;95404.06;5071104;28;20204;-62
2022/10/09 09:39:05;;;;;;;6.50;3.75;;;;;;;21.04;61.25;95361.50;5048444;28;20247;-63
2022/10/09 09:41:30;;;;;;;5.43;3.90;;;;;;;21.08;60.95;95359.38;5070964;28;20216;-60
2022/10/09 09:43:56;;;;;;;5.35;4.75;;;;;;;21.31;61.17;95358.31;5071128;28;20220;-61
2022/10/09 09:46:27;;;;;;;9.27;4.03;;;;;;;21.42;60.17;95377.78;5070886;28;20222;-63
2022/10/09 09:48:53;;;;;;;6.40;4.03;;;;;;;21.35;60.01;95369.91;5070938;28;20216;-62
2022/10/09 09:51:23;;;;;;;5.20;3.28;;;;;;;20.85;59.85;95374.88;5071072;28;20177;-63
2022/10/09 09:53:51;;;;;;;5.15;3.95;;;;;;;21.12;60.32;95361.44;5070656;28;20602;-63
2022/10/09 09:56:17;;;;;;;6.95;3.70;;;;;;;21.39;60.14;95352.25;5070765;28;20196;-59
2022/10/09 09:58:49;;;;;;;7.43;4.40;;;;;;;21.91;58.50;95404.75;5070877;28;20296;-62
2022/10/09 10:01:24;;;;;;;4.07;3.67;;;;;;;21.46;59.03;95382.41;5072517;28;20181;-63
2022/10/09 10:03:52;;;;;;;5.28;4.20;;;;;;;21.68;58.41;95393.66;5074416;28;20227;-63
2022/10/09 10:06:28;;;;;;;5.32;3.60;;;;;;;21.84;58.87;95379.72;5074321;28;20189;-60
2022/10/09 10:08:58;;;;;;;7.30;4.00;;;;;;;21.85;57.61;95408.06;5074561;28;20219;-59
2022/10/09 10:11:23;;;;;;;8.05;3.90;;;;;;;21.44;58.22;95381.78;5074321;28;20188;-61
2022/10/09 10:13:49;;;;;;;6.75;3.38;;;;;;;21.29;58.42;95372.44;5055974;28;20208;-58
2022/10/09 10:16:26;;;;;;;5.97;3.60;;;;;;;21.67;57.80;95397.22;5073883;28;20181;-61
2022/10/09 10:18:55;;;;;;;6.50;3.40;;;;;;;22.09;59.21;95360.31;5074350;28;20247;-61
2022/10/09 10:21:21;;;;;;;5.40;3.13;;;;;;;22.59;56.97;95416.47;5074129;28;20188;-61
2022/10/09 10:24:11;;;;;;;5.68;3.80;;;;;;;22.68;56.16;95429.16;5074009;28;20216;-62
2022/10/09 10:26:49;;;;;;;6.95;3.70;;;;;;;22.82;54.22;95466.38;5074136;28;20192;-61
2022/10/09 10:29:32;;;;;;;4.13;3.60;;;;;;;22.38;53.83;95463.91;5074136;28;20213;-62
2022/10/09 10:32:20;;;;;;;5.35;3.38;;;;;;;22.43;53.62;95472.72;5091780;22;20701;-62
2022/10/09 10:35:16;;;;;;;6.28;3.13;;;;;;;22.49;53.57;95453.03;5093937;28;20283;-61
2022/10/09 10:38:05;;;;;;;5.90;3.08;;;;;;;22.77;54.84;95404.69;5083543;28;20295;-62
2022/10/09 10:40:35;;;;;;;7.22;3.60;;;;;;;23.47;55.20;95409.88;5094107;28;20610;-62
2022/10/09 10:43:14;;;;;;;4.03;3.20;;;;;;;23.49;51.05;95519.53;5093851;28;20302;-62
2022/10/09 10:45:43;;;;;;;6.53;3.50;;;;;;;22.78;51.65;95484.09;5093757;28;20259;-62
2022/10/09 10:48:18;;;;;;;4.32;3.00;;;;;;;22.79;49.87;95527.19;5091943;28;20187;-61
2022/10/09 10:51:21;;;;;;;4.65;3.00;;;;;;;22.90;51.27;95474.03;5092385;28;20219;-62
2022/10/09 10:53:51;;;;;;;4.90;2.90;;;;;;;23.30;50.48;95500.16;5068504;28;20685;-62
2022/10/09 10:56:38;;;;;;;6.35;3.45;;;;;;;23.68;52.03;95446.13;5085312;28;20189;-63
2022/10/09 10:59:04;;;;;;;6.65;3.50;;;;;;;24.19;50.10;95498.63;5053983;28;20649;-62
2022/10/09 11:01:51;;;;;;;3.72;3.10;;;;;;;24.04;48.36;95542.91;5073152;28;20197;-63
2022/10/09 11:04:34;;;;;;;2.95;2.65;;;;;;;24.13;48.08;95517.56;5073509;28;20247;-60
2022/10/09 11:07:08;;;;;;;5.63;3.35;;;;;;;24.70;48.85;95501.63;5073643;28;20304;-60
2022/10/09 11:09:44;;;;;;;3.58;2.72;;;;;;;24.75;46.06;95583.31;5073045;28;20208;-62
2022/10/09 11:12:19;;;;;;;7.28;3.25;;;;;;;24.82;44.56;95609.34;5054950;28;20661;-63
2022/10/09 11:14:44;;;;;;;5.13;3.33;;;;;;;24.90;44.55;95586.59;5073059;28;20239;-62
2022/10/09 11:17:27;;;;;;;9.10;3.10;;;;;;;24.85;44.38;95591.56;5073443;28;20223;-63
2022/10/09 11:20:20;;;;;;;5.88;2.95;;;;;;;24.65;44.17;95421.56;5072881;28;20217;-59
2022/10/09 11:23:01;;;;;;;3.67;2.83;;;;;;;24.83;43.36;95403.63;5073157;28;20220;-64
2022/10/09 11:25:52;;;;;;;3.70;3.00;;;;;;;24.54;44.16;95344.16;5072991;28;20288;-63
2022/10/09 11:28:26;;;;;;;3.30;2.35;;;;;;;25.15;43.80;95329.13;5072923;28;20185;-62
2022/10/09 11:31:02;;;;;;;3.13;2.70;;;;;;;25.17;43.41;95321.13;5073214;28;20220;-62
2022/10/09 11:33:41;;;;;;;6.68;3.10;;;;;;;25.12;43.77;95295.72;5073363;28;20687;-62
2022/10/09 11:36:32;;;;;;;10.40;3.75;;;;;;;25.55;43.95;95293.44;5073087;28;20647;-63
2022/10/09 11:39:00;;;;;;;7.88;2.65;;;;;;;25.75;43.39;95299.34;5072989;28;20209;-63